Time;durP1;ratioP1;P1;durP2;ratioP2;P2;SDS_P1;SDS_P2;PMS_P1;PMS_P2;Temp;Humidity;BMP_temperature;BMP_pressure;BME280_temperature;BME280_humidity;BME280_pressure;Samples;Min_cycle;Max_cycle;Signal;HPM_P1;HPM_P2
2021/08/24 00:02:09;;;;;;;11.40;10.30;;;14.40;99.90;;;;;;4890360;29;20215;-77
2021/08/24 00:04:36;;;;;;;11.27;10.17;;;14.40;99.90;;;;;;4892347;29;20267;-77
2021/08/24 00:07:03;;;;;;;11.40;10.40;;;14.40;99.90;;;;;;4891603;29;20225;-76
2021/08/24 00:09:31;;;;;;;11.60;10.50;;;14.40;99.90;;;;;;4893076;29;20250;-77
2021/08/24 00:11:58;;;;;;;12.53;11.10;;;14.40;99.90;;;;;;4892101;29;20232;-78
2021/08/24 00:14:26;;;;;;;12.63;11.53;;;14.40;99.90;;;;;;4893436;29;20200;-77
2021/08/24 00:16:53;;;;;;;12.50;11.40;;;14.50;99.90;;;;;;4891862;29;20649;-77
2021/08/24 00:19:19;;;;;;;12.03;10.93;;;14.50;99.90;;;;;;4890211;29;20216;-77
2021/08/24 00:21:46;;;;;;;12.20;11.00;;;14.50;99.90;;;;;;4892579;29;20205;-76
2021/08/24 00:24:13;;;;;;;12.50;11.30;;;14.50;99.90;;;;;;4901061;29;20236;-76
2021/08/24 00:26:40;;;;;;;12.73;11.40;;;14.50;99.90;;;;;;4895592;29;20232;-77
2021/08/24 00:29:07;;;;;;;12.30;11.00;;;14.50;99.90;;;;;;4893391;29;20204;-77
2021/08/24 00:31:35;;;;;;;11.43;10.33;;;14.50;99.90;;;;;;4897310;29;20200;-76
2021/08/24 00:34:02;;;;;;;11.47;10.37;;;14.50;99.90;;;;;;4895542;29;20212;-76
2021/08/24 00:36:29;;;;;;;12.07;10.70;;;14.50;99.90;;;;;;4897848;29;20221;-78
2021/08/24 00:38:55;;;;;;;11.40;10.30;;;14.50;99.90;;;;;;4892683;29;20229;-77
2021/08/24 00:41:22;;;;;;;10.93;9.93;;;14.40;99.90;;;;;;4894538;29;20205;-77
2021/08/24 00:43:49;;;;;;;11.97;10.87;;;14.40;99.90;;;;;;4896929;29;20203;-77
2021/08/24 00:46:29;;;;;;;11.17;10.10;;;14.40;99.90;;;;;;4892947;29;20237;-76
2021/08/24 00:48:58;;;;;;;11.60;10.40;;;14.40;99.90;;;;;;4894600;29;20607;-77
2021/08/24 00:51:26;;;;;;;10.87;9.77;;;14.40;99.90;;;;;;4895974;29;20228;-78
2021/08/24 00:53:54;;;;;;;10.57;9.60;;;14.40;99.90;;;;;;4900048;29;20662;-77
2021/08/24 00:56:21;;;;;;;11.00;9.97;;;14.40;99.90;;;;;;4892836;29;20272;-76
2021/08/24 00:58:48;;;;;;;10.17;9.20;;;14.40;99.90;;;;;;4893161;29;20650;-78
2021/08/24 01:01:16;;;;;;;9.00;8.20;;;14.30;99.90;;;;;;4885778;29;20199;-77
2021/08/24 01:03:45;;;;;;;9.70;8.70;;;14.30;99.90;;;;;;4885023;29;20257;-78
2021/08/24 01:06:24;;;;;;;9.37;8.50;;;14.40;99.90;;;;;;4892045;29;20232;-76
2021/08/24 01:09:15;;;;;;;9.80;8.90;;;14.30;99.90;;;;;;4894749;29;20221;-77
2021/08/24 01:11:51;;;;;;;10.37;9.37;;;14.40;99.90;;;;;;4891492;29;20753;-77
2021/08/24 01:14:26;;;;;;;9.80;8.90;;;14.40;99.90;;;;;;4887582;29;20242;-77
2021/08/24 01:17:00;;;;;;;9.20;8.40;;;14.30;99.90;;;;;;4896902;29;20274;-76
2021/08/24 01:20:12;;;;;;;9.07;8.27;;;14.30;99.90;;;;;;4897288;29;20222;-76
2021/08/24 01:22:57;;;;;;;8.50;7.70;;;14.30;99.90;;;;;;4890999;29;20739;-77
2021/08/24 01:25:30;;;;;;;9.60;8.70;;;14.20;99.90;;;;;;4911227;29;20226;-77
2021/08/24 01:28:05;;;;;;;9.20;8.30;;;14.10;99.90;;;;;;4902303;29;20271;-77
2021/08/24 01:30:57;;;;;;;8.23;7.43;;;14.10;99.90;;;;;;4897423;29;20288;-77
2021/08/24 01:33:31;;;;;;;8.83;7.27;;;14.10;99.90;;;;;;4903157;29;20210;-77
2021/08/24 01:36:14;;;;;;;8.27;6.87;;;14.00;99.90;;;;;;4900402;29;20231;-78
2021/08/24 01:38:50;;;;;;;7.70;6.90;;;13.90;99.90;;;;;;4898579;29;20204;-77
2021/08/24 01:41:22;;;;;;;7.53;6.63;;;13.90;99.90;;;;;;4891656;29;20684;-77
2021/08/24 01:43:57;;;;;;;8.47;6.90;;;13.90;99.90;;;;;;4893684;29;20204;-77
2021/08/24 01:46:32;;;;;;;7.20;6.50;;;13.80;99.90;;;;;;4889702;29;20425;-77
2021/08/24 01:49:03;;;;;;;6.67;6.07;;;13.90;99.90;;;;;;4896889;29;20208;-77
2021/08/24 01:51:37;;;;;;;6.70;6.00;;;13.80;99.90;;;;;;4895241;29;20202;-77
2021/08/24 01:54:11;;;;;;;7.47;6.60;;;13.90;99.90;;;;;;4892878;29;20202;-77
2021/08/24 01:56:40;;;;;;;7.57;6.80;;;13.90;99.90;;;;;;4894835;29;20243;-77
2021/08/24 01:59:11;;;;;;;6.80;6.10;;;13.90;99.90;;;;;;4891575;29;20220;-76
2021/08/24 02:01:41;;;;;;;8.73;6.77;;;13.90;99.90;;;;;;4893379;29;20685;-77
2021/08/24 02:04:13;;;;;;;7.47;6.43;;;13.90;99.90;;;;;;4894710;29;20199;-77
2021/08/24 02:06:45;;;;;;;7.10;6.17;;;13.90;99.90;;;;;;4898357;29;20290;-78
2021/08/24 02:09:17;;;;;;;7.00;6.30;;;13.80;99.90;;;;;;4892214;29;20211;-76
2021/08/24 02:11:45;;;;;;;8.63;6.33;;;13.80;99.90;;;;;;4893328;29;20204;-76
2021/08/24 02:14:15;;;;;;;6.67;6.00;;;13.80;99.90;;;;;;4891557;29;20273;-76
2021/08/24 02:16:44;;;;;;;7.40;6.57;;;13.80;99.90;;;;;;4883731;29;20222;-77
2021/08/24 02:19:13;;;;;;;7.33;6.63;;;13.70;99.90;;;;;;4885771;29;20319;-77
2021/08/24 02:21:45;;;;;;;7.60;6.80;;;13.80;99.90;;;;;;4892520;29;20216;-78
2021/08/24 02:24:17;;;;;;;6.83;6.13;;;13.80;99.90;;;;;;4891386;29;20196;-77
2021/08/24 02:26:47;;;;;;;7.37;6.67;;;13.80;99.90;;;;;;4895575;29;20215;-77
2021/08/24 02:29:14;;;;;;;7.30;6.60;;;13.70;99.90;;;;;;4890322;29;20208;-77
2021/08/24 02:31:45;;;;;;;8.27;6.63;;;13.70;99.90;;;;;;4891022;29;20640;-77
2021/08/24 02:34:21;;;;;;;8.13;6.73;;;13.70;99.90;;;;;;4897509;29;20204;-77
2021/08/24 02:36:56;;;;;;;7.00;6.30;;;13.70;99.90;;;;;;4898085;29;20707;-79
2021/08/24 02:39:28;;;;;;;10.47;7.10;;;13.70;99.90;;;;;;4891449;29;20225;-77
2021/08/24 02:42:01;;;;;;;7.03;6.30;;;13.70;99.90;;;;;;4895253;29;20203;-77
2021/08/24 02:44:35;;;;;;;6.63;5.93;;;13.70;99.90;;;;;;4890805;29;20208;-77
2021/08/24 02:47:02;;;;;;;8.67;6.97;;;13.60;99.90;;;;;;4892529;29;20216;-77
2021/08/24 02:49:31;;;;;;;6.90;6.03;;;13.60;99.90;;;;;;4892300;29;20211;-77
2021/08/24 02:52:02;;;;;;;6.77;6.07;;;13.60;99.90;;;;;;4890917;29;20273;-77
2021/08/24 02:54:31;;;;;;;7.30;6.47;;;13.60;99.90;;;;;;4895792;29;20330;-79
2021/08/24 02:57:00;;;;;;;7.10;6.40;;;13.50;99.90;;;;;;4900857;29;20235;-79
2021/08/24 02:59:27;;;;;;;7.47;6.77;;;13.50;99.90;;;;;;4893267;29;20696;-79
2021/08/24 03:01:54;;;;;;;8.40;7.70;;;13.50;99.90;;;;;;4887726;29;20215;-78
2021/08/24 03:04:22;;;;;;;8.80;8.03;;;13.40;99.90;;;;;;4893843;29;20206;-79
2021/08/24 03:06:54;;;;;;;8.93;8.23;;;13.40;99.90;;;;;;4898058;29;20606;-78
2021/08/24 03:09:26;;;;;;;8.17;7.47;;;13.40;99.90;;;;;;4899829;29;20460;-77
2021/08/24 03:12:05;;;;;;;8.50;7.80;;;13.30;99.90;;;;;;4890720;29;20201;-77
2021/08/24 03:14:37;;;;;;;6.77;6.07;;;13.30;99.90;;;;;;4886802;29;20675;-76
2021/08/24 03:17:11;;;;;;;7.40;6.30;;;13.30;99.90;;;;;;4886564;29;20287;-76
2021/08/24 03:19:42;;;;;;;7.27;6.67;;;13.30;99.90;;;;;;4889000;29;20232;-78
2021/08/24 03:22:11;;;;;;;7.53;6.83;;;13.20;99.90;;;;;;4887067;29;20254;-77
2021/08/24 03:24:40;;;;;;;11.50;10.70;;;13.20;99.90;;;;;;4888347;29;20268;-77
2021/08/24 03:27:08;;;;;;;13.67;12.77;;;13.20;99.90;;;;;;4894505;29;20234;-77
2021/08/24 03:29:36;;;;;;;13.40;12.50;;;13.20;99.90;;;;;;4889687;29;20196;-77
2021/08/24 03:32:05;;;;;;;7.93;7.30;;;13.10;99.90;;;;;;4889260;29;20271;-77
2021/08/24 03:34:32;;;;;;;8.70;8.00;;;13.10;99.90;;;;;;4887585;29;20647;-77
2021/08/24 03:36:59;;;;;;;7.50;6.90;;;13.10;99.90;;;;;;4892679;29;20626;-77
2021/08/24 03:39:27;;;;;;;8.07;7.43;;;13.00;99.90;;;;;;4892963;29;20202;-77
2021/08/24 03:41:55;;;;;;;7.93;7.23;;;13.00;99.90;;;;;;4893331;29;20683;-77
2021/08/24 03:44:22;;;;;;;7.93;7.20;;;12.90;99.90;;;;;;4890626;29;20656;-78
2021/08/24 03:46:49;;;;;;;8.40;7.80;;;12.90;99.90;;;;;;4888347;29;20230;-79
2021/08/24 03:49:16;;;;;;;8.50;7.70;;;12.90;99.90;;;;;;4887487;29;20438;-77
2021/08/24 03:51:42;;;;;;;7.57;6.87;;;12.80;99.90;;;;;;4901183;29;20583;-78
2021/08/24 03:54:09;;;;;;;6.53;5.93;;;12.80;99.90;;;;;;4890379;29;20214;-77
2021/08/24 03:56:36;;;;;;;6.07;5.47;;;12.70;99.90;;;;;;4893902;29;20278;-78
2021/08/24 03:59:04;;;;;;;7.10;6.40;;;12.70;99.90;;;;;;4890824;29;20214;-77
2021/08/24 04:01:31;;;;;;;8.03;7.40;;;12.70;99.90;;;;;;4889265;29;20249;-77
2021/08/24 04:03:58;;;;;;;7.03;6.40;;;12.60;99.90;;;;;;4891954;29;20206;-77
2021/08/24 04:06:25;;;;;;;6.33;5.83;;;12.50;99.90;;;;;;4890779;29;20218;-77
2021/08/24 04:08:52;;;;;;;8.23;7.23;;;12.50;99.90;;;;;;4890825;29;20229;-77
2021/08/24 04:11:20;;;;;;;8.03;7.33;;;12.50;99.90;;;;;;4890880;29;20660;-78
2021/08/24 04:13:47;;;;;;;6.20;5.60;;;12.40;99.90;;;;;;4891396;29;20660;-77
2021/08/24 04:16:15;;;;;;;7.97;5.80;;;12.40;99.90;;;;;;4892138;29;20273;-78
2021/08/24 04:18:42;;;;;;;7.30;6.60;;;12.30;99.90;;;;;;4884892;29;20242;-77
2021/08/24 04:21:12;;;;;;;8.77;7.97;;;12.20;99.90;;;;;;4881741;29;20222;-77
2021/08/24 04:23:39;;;;;;;9.17;8.37;;;12.20;99.90;;;;;;4881399;29;20625;-77
2021/08/24 04:26:07;;;;;;;9.23;8.53;;;12.20;99.90;;;;;;4881991;29;20240;-76
2021/08/24 04:28:34;;;;;;;9.40;8.60;;;12.10;99.90;;;;;;4887622;29;20206;-77
2021/08/24 04:31:04;;;;;;;8.83;7.93;;;12.10;99.90;;;;;;4895555;29;20205;-77
2021/08/24 04:33:32;;;;;;;8.83;8.13;;;12.10;99.90;;;;;;4888806;29;20237;-77
2021/08/24 04:35:59;;;;;;;8.40;7.70;;;12.00;99.90;;;;;;4891513;29;20738;-79
2021/08/24 04:38:43;;;;;;;15.20;14.30;;;12.00;99.90;;;;;;4887749;29;20270;-79
2021/08/24 04:42:00;;;;;;;15.80;14.70;;;12.00;99.90;;;;;;4876471;29;20618;-81
2021/08/24 04:44:26;;;;;;;15.00;14.00;;;12.00;99.90;;;;;;4830336;29;20620;-78
2021/08/24 04:46:59;;;;;;;15.90;14.60;;;11.90;99.90;;;;;;4878784;29;20230;-76
2021/08/24 04:49:27;;;;;;;14.80;13.80;;;12.00;99.90;;;;;;4898790;29;20674;-78
2021/08/24 04:51:54;;;;;;;14.27;13.37;;;12.00;99.90;;;;;;4899108;29;20194;-77
2021/08/24 04:54:21;;;;;;;14.87;13.87;;;12.00;99.90;;;;;;4899017;29;20991;-78
2021/08/24 04:56:48;;;;;;;14.90;13.90;;;12.00;99.90;;;;;;4900309;29;20274;-77
2021/08/24 04:59:15;;;;;;;14.83;13.83;;;12.00;99.90;;;;;;4888806;29;20256;-77
2021/08/24 05:01:42;;;;;;;14.80;13.90;;;12.00;99.90;;;;;;4899868;29;20647;-77
2021/08/24 05:04:09;;;;;;;14.70;13.70;;;12.10;99.90;;;;;;4898578;29;20253;-76
2021/08/24 05:06:37;;;;;;;14.53;13.63;;;12.10;99.90;;;;;;4892435;29;20217;-77
2021/08/24 05:09:04;;;;;;;14.67;13.77;;;12.10;99.90;;;;;;4892881;29;20202;-76
2021/08/24 05:11:30;;;;;;;14.57;13.57;;;12.20;99.90;;;;;;4892021;29;20201;-77
2021/08/24 05:13:57;;;;;;;14.57;13.67;;;12.20;99.90;;;;;;4892342;29;20637;-77
2021/08/24 05:16:24;;;;;;;14.63;13.53;;;12.20;99.90;;;;;;4897284;29;20225;-77
2021/08/24 05:18:51;;;;;;;14.90;14.00;;;12.30;99.90;;;;;;4901155;29;20297;-77
2021/08/24 05:21:18;;;;;;;14.80;13.90;;;12.40;99.90;;;;;;4894907;29;20223;-78
2021/08/24 05:23:46;;;;;;;14.23;13.33;;;12.40;99.90;;;;;;4900779;29;20193;-77
2021/08/24 05:26:18;;;;;;;15.20;14.20;;;12.50;99.90;;;;;;4903439;29;20241;-78
2021/08/24 05:28:45;;;;;;;14.93;13.97;;;12.60;99.90;;;;;;4903884;29;20212;-77
2021/08/24 05:31:12;;;;;;;14.97;13.97;;;12.70;99.90;;;;;;4903438;29;20197;-77
2021/08/24 05:33:39;;;;;;;15.07;14.17;;;12.80;99.90;;;;;;4898940;29;20265;-78
2021/08/24 05:36:06;;;;;;;14.73;13.83;;;12.90;99.90;;;;;;4889790;29;20245;-80
2021/08/24 05:38:34;;;;;;;15.23;14.23;;;13.10;99.90;;;;;;4890534;29;20564;-79
2021/08/24 05:41:03;;;;;;;15.50;14.50;;;13.20;99.90;;;;;;4899712;29;20219;-78
2021/08/24 05:43:30;;;;;;;14.50;13.60;;;13.30;99.90;;;;;;4893279;29;20199;-77
2021/08/24 05:45:58;;;;;;;13.03;12.10;;;13.40;99.90;;;;;;4932371;23;20285;-79
2021/08/24 05:48:27;;;;;;;14.17;13.13;;;13.50;99.90;;;;;;4931391;29;20210;-78
2021/08/24 05:50:54;;;;;;;14.33;13.33;;;13.60;99.90;;;;;;4933497;29;20687;-77
2021/08/24 05:53:21;;;;;;;14.60;13.60;;;13.70;99.90;;;;;;4927811;29;20694;-77
2021/08/24 05:55:48;;;;;;;7.30;6.70;;;13.90;99.90;;;;;;4927857;29;20227;-77
2021/08/24 05:58:16;;;;;;;14.03;13.03;;;13.90;99.90;;;;;;4929063;29;20670;-78
2021/08/24 06:00:43;;;;;;;13.50;12.40;;;14.00;99.90;;;;;;4927110;29;20287;-77
2021/08/24 06:03:10;;;;;;;7.87;7.17;;;14.10;99.90;;;;;;4925237;29;20280;-77
2021/08/24 06:05:38;;;;;;;6.93;6.20;;;14.10;99.90;;;;;;4921537;29;20225;-78
2021/08/24 06:08:06;;;;;;;7.43;5.30;;;14.10;99.90;;;;;;4916881;29;20243;-77
2021/08/24 06:10:36;;;;;;;5.00;4.60;;;14.10;99.90;;;;;;4931008;29;20219;-77
2021/08/24 06:13:03;;;;;;;5.73;5.10;;;14.20;99.90;;;;;;4925372;29;20696;-78
2021/08/24 06:15:33;;;;;;;10.63;9.77;;;14.30;99.90;;;;;;4928186;29;20250;-78
2021/08/24 06:18:00;;;;;;;5.80;5.20;;;14.30;99.90;;;;;;4926506;29;20266;-78
2021/08/24 06:20:27;;;;;;;6.43;5.20;;;14.50;99.90;;;;;;4925271;29;20203;-78
2021/08/24 06:22:54;;;;;;;6.83;6.13;;;14.60;99.90;;;;;;4924566;29;20623;-78
2021/08/24 06:25:22;;;;;;;7.20;5.20;;;14.70;99.90;;;;;;4918116;29;20219;-77
2021/08/24 06:27:50;;;;;;;6.87;6.27;;;14.90;99.90;;;;;;4930921;29;20200;-77
2021/08/24 06:30:17;;;;;;;10.27;9.27;;;15.10;99.90;;;;;;4918748;29;20725;-77
2021/08/24 06:32:48;;;;;;;14.10;13.20;;;15.20;99.90;;;;;;4925646;29;20202;-77
2021/08/24 06:35:16;;;;;;;13.33;12.43;;;15.10;99.90;;;;;;4920654;29;20275;-77
2021/08/24 06:37:43;;;;;;;14.57;13.57;;;15.20;99.90;;;;;;4917314;29;20215;-76
2021/08/24 06:40:13;;;;;;;14.00;12.90;;;15.10;99.90;;;;;;4924500;29;20248;-78
2021/08/24 06:42:41;;;;;;;6.63;6.00;;;15.20;99.90;;;;;;4923158;29;20227;-77
2021/08/24 06:45:11;;;;;;;11.80;11.00;;;15.30;99.90;;;;;;4918009;29;20418;-77
2021/08/24 06:47:39;;;;;;;6.20;5.60;;;15.50;99.90;;;;;;4920648;29;20209;-77
2021/08/24 06:50:08;;;;;;;6.23;5.17;;;15.60;99.90;;;;;;4928355;29;20257;-77
2021/08/24 06:52:35;;;;;;;6.00;5.40;;;15.60;99.90;;;;;;4925206;29;20668;-78
2021/08/24 06:55:02;;;;;;;12.33;11.40;;;15.50;99.90;;;;;;4913135;29;20209;-77
2021/08/24 06:57:29;;;;;;;6.93;6.27;;;15.40;99.90;;;;;;4925752;29;20204;-77
2021/08/24 06:59:55;;;;;;;6.23;5.63;;;15.40;99.90;;;;;;4926945;29;20208;-78
2021/08/24 07:02:22;;;;;;;5.97;4.70;;;15.30;99.90;;;;;;4921291;29;20250;-78
2021/08/24 07:04:49;;;;;;;7.97;5.53;;;15.30;99.90;;;;;;4932658;29;20200;-77
2021/08/24 07:07:17;;;;;;;7.07;5.60;;;15.30;99.90;;;;;;4903557;29;20216;-78
2021/08/24 07:09:44;;;;;;;6.57;4.80;;;15.30;99.90;;;;;;4903571;29;20205;-78
2021/08/24 07:12:10;;;;;;;5.20;4.70;;;15.40;99.90;;;;;;4902626;29;20195;-77
2021/08/24 07:14:38;;;;;;;9.83;9.13;;;15.60;99.90;;;;;;4901276;29;20748;-77
2021/08/24 07:17:05;;;;;;;12.07;11.17;;;15.60;99.90;;;;;;4902922;29;20755;-78
2021/08/24 07:19:31;;;;;;;6.30;5.70;;;15.60;99.90;;;;;;4904275;29;20197;-77
2021/08/24 07:21:58;;;;;;;10.97;10.13;;;15.60;99.90;;;;;;4903183;29;20255;-77
2021/08/24 07:24:27;;;;;;;12.50;11.60;;;15.50;99.90;;;;;;4931949;29;20223;-77
2021/08/24 07:26:54;;;;;;;8.00;5.70;;;15.50;99.90;;;;;;4940143;29;20272;-78
2021/08/24 07:29:21;;;;;;;9.20;5.30;;;15.50;99.90;;;;;;4932115;29;20538;-77
2021/08/24 07:31:47;;;;;;;9.27;8.37;;;15.40;99.90;;;;;;4924504;29;20196;-77
2021/08/24 07:34:14;;;;;;;7.50;5.40;;;15.60;99.90;;;;;;4929422;29;20221;-77
2021/08/24 07:36:41;;;;;;;9.67;8.87;;;15.70;99.90;;;;;;4927306;29;20215;-79
2021/08/24 07:39:08;;;;;;;7.37;6.57;;;15.70;99.90;;;;;;4919990;29;20268;-78
2021/08/24 07:41:36;;;;;;;7.63;5.90;;;15.70;99.90;;;;;;4924371;29;20695;-77
2021/08/24 07:44:04;;;;;;;6.47;4.93;;;15.60;99.90;;;;;;4927044;29;20269;-78
2021/08/24 07:46:31;;;;;;;7.73;6.93;;;15.60;99.90;;;;;;4921773;29;20562;-78
2021/08/24 07:48:58;;;;;;;8.27;7.27;;;15.70;99.90;;;;;;4921892;29;20623;-77
2021/08/24 07:51:25;;;;;;;11.93;10.30;;;15.60;99.90;;;;;;4907690;29;20204;-77
2021/08/24 07:53:52;;;;;;;13.63;12.60;;;15.70;99.90;;;;;;4929668;29;20197;-79
2021/08/24 07:56:21;;;;;;;5.93;5.17;;;15.70;99.90;;;;;;4921867;29;20215;-76
2021/08/24 07:58:49;;;;;;;12.27;11.47;;;15.70;99.90;;;;;;4916586;29;20279;-78
2021/08/24 08:01:17;;;;;;;9.87;8.97;;;15.90;99.90;;;;;;4911341;29;20204;-78
2021/08/24 08:03:44;;;;;;;11.73;10.83;;;16.10;99.90;;;;;;4913860;29;20198;-78
2021/08/24 08:06:11;;;;;;;9.63;8.83;;;16.30;99.90;;;;;;4920855;29;20279;-80
2021/08/24 08:08:38;;;;;;;8.53;7.30;;;16.50;99.90;;;;;;4920324;29;20558;-79
2021/08/24 08:11:04;;;;;;;6.23;5.63;;;16.50;99.90;;;;;;4917580;29;20247;-78
2021/08/24 08:13:31;;;;;;;8.70;8.00;;;16.70;99.90;;;;;;4921701;29;20225;-79
2021/08/24 08:15:59;;;;;;;8.50;7.70;;;16.80;99.90;;;;;;4918006;29;20244;-79
2021/08/24 08:18:27;;;;;;;10.93;10.03;;;16.80;99.90;;;;;;4921634;29;20690;-82
2021/08/24 08:20:54;;;;;;;10.43;9.37;;;16.40;99.90;;;;;;4913536;29;20204;-80
2021/08/24 08:23:21;;;;;;;9.60;8.70;;;16.30;99.90;;;;;;4914502;29;20242;-78
2021/08/24 08:25:48;;;;;;;10.07;9.27;;;16.20;99.90;;;;;;4915173;29;20638;-78
2021/08/24 08:28:15;;;;;;;9.70;8.90;;;16.00;99.90;;;;;;4916004;29;20743;-78
2021/08/24 08:30:43;;;;;;;9.43;8.47;;;16.20;99.90;;;;;;4920833;29;20197;-78
2021/08/24 08:33:13;;;;;;;9.87;8.97;;;16.30;99.90;;;;;;4916732;29;20204;-77
2021/08/24 08:35:41;;;;;;;9.83;9.03;;;16.20;99.90;;;;;;4916068;29;20276;-78
2021/08/24 08:38:08;;;;;;;9.23;8.53;;;16.30;99.90;;;;;;4912906;29;20225;-78
2021/08/24 08:40:43;;;;;;;9.13;8.43;;;16.20;99.90;;;;;;4898103;29;20684;-78
2021/08/24 08:46:16;;;;;;;5.83;5.20;;;16.10;99.90;;;;;;4909909;29;20633;-78
2021/08/24 08:48:54;;;;;;;5.70;5.13;;;16.10;99.90;;;;;;4918575;29;20201;-76
2021/08/24 08:51:39;;;;;;;7.17;6.57;;;16.00;99.90;;;;;;4919802;29;20197;-78
2021/08/24 08:54:17;;;;;;;10.13;9.20;;;16.00;99.90;;;;;;4911452;29;20255;-76
2021/08/24 08:56:51;;;;;;;10.43;9.40;;;16.00;99.90;;;;;;4924188;29;20570;-77
2021/08/24 08:59:22;;;;;;;9.67;8.97;;;15.90;99.90;;;;;;4912550;29;20250;-77
2021/08/24 09:01:57;;;;;;;10.47;9.57;;;16.00;99.90;;;;;;4930794;29;20226;-77
2021/08/24 09:04:31;;;;;;;9.80;9.00;;;15.90;99.90;;;;;;4926363;29;20221;-77
2021/08/24 09:07:00;;;;;;;8.90;7.97;;;16.10;99.90;;;;;;4928039;29;20223;-77
2021/08/24 09:09:29;;;;;;;11.10;9.47;;;16.40;99.90;;;;;;4919020;29;20218;-78
2021/08/24 09:11:57;;;;;;;9.13;8.23;;;16.70;99.90;;;;;;4917110;29;20665;-77
2021/08/24 09:14:30;;;;;;;9.60;8.80;;;16.90;99.90;;;;;;4923834;29;20204;-78
2021/08/24 09:17:02;;;;;;;10.27;9.13;;;16.90;99.90;;;;;;4915026;29;20231;-78
2021/08/24 09:19:39;;;;;;;10.30;9.30;;;16.70;99.90;;;;;;4914596;29;20197;-77
2021/08/24 09:22:06;;;;;;;10.43;9.50;;;16.60;99.90;;;;;;4910142;29;20221;-78
2021/08/24 09:24:36;;;;;;;8.13;7.27;;;16.50;99.90;;;;;;4910152;29;20209;-77
2021/08/24 09:27:07;;;;;;;5.73;5.13;;;16.60;99.90;;;;;;4910305;29;20252;-77
2021/08/24 09:29:38;;;;;;;6.87;6.10;;;16.70;99.90;;;;;;4908026;29;20250;-78
2021/08/24 09:32:09;;;;;;;11.00;10.00;;;16.90;99.90;;;;;;4909981;29;20725;-77
2021/08/24 09:34:40;;;;;;;11.23;10.13;;;17.00;99.90;;;;;;4907543;29;20222;-78
2021/08/24 09:37:07;;;;;;;9.73;8.93;;;17.30;99.90;;;;;;4915101;29;20224;-78
2021/08/24 09:39:52;;;;;;;10.43;9.30;;;17.50;99.90;;;;;;4917132;29;20203;-78
2021/08/24 09:42:32;;;;;;;9.53;8.83;;;17.80;99.90;;;;;;4911709;29;20256;-77
2021/08/24 09:45:01;;;;;;;10.03;9.23;;;17.60;99.90;;;;;;4908256;29;20204;-78
2021/08/24 09:47:28;;;;;;;9.10;8.40;;;17.60;99.90;;;;;;4909618;29;20232;-77
2021/08/24 09:50:03;;;;;;;9.57;8.67;;;17.50;99.90;;;;;;4916206;29;20204;-77
2021/08/24 09:52:36;;;;;;;10.00;9.20;;;17.80;99.90;;;;;;4909212;29;20620;-77
2021/08/24 09:55:07;;;;;;;9.80;9.00;;;18.00;99.90;;;;;;4917117;29;20203;-78
2021/08/24 09:57:37;;;;;;;9.17;8.47;;;18.10;99.90;;;;;;4924488;29;20192;-78
2021/08/24 10:00:07;;;;;;;8.27;7.57;;;18.40;99.90;;;;;;4924749;29;20204;-78
2021/08/24 10:02:42;;;;;;;11.97;11.07;;;19.00;99.90;;;;;;4925501;29;20220;-77
2021/08/24 10:05:12;;;;;;;12.47;11.57;;;19.30;99.90;;;;;;4923883;29;20324;-77
2021/08/24 10:07:41;;;;;;;10.83;10.03;;;19.30;99.90;;;;;;4919593;29;20212;-78
2021/08/24 10:10:19;;;;;;;9.37;8.57;;;19.50;99.90;;;;;;4929843;29;20234;-77
2021/08/24 10:12:51;;;;;;;7.27;6.57;;;19.90;99.90;;;;;;4926557;29;20206;-78
2021/08/24 10:15:29;;;;;;;11.13;10.33;;;20.20;99.90;;;;;;4928587;29;20254;-78
2021/08/24 10:18:06;;;;;;;11.30;10.40;;;20.50;99.90;;;;;;4925820;29;20201;-77
2021/08/24 10:20:38;;;;;;;12.07;11.10;;;20.30;99.90;;;;;;4927409;29;20667;-78
2021/08/24 10:23:08;;;;;;;5.33;4.83;;;20.10;99.90;;;;;;4914873;29;20239;-78
2021/08/24 10:25:42;;;;;;;6.67;4.73;;;19.70;99.90;;;;;;4925916;29;20218;-78
2021/08/24 10:28:14;;;;;;;6.30;5.70;;;19.50;99.90;;;;;;4917552;29;20211;-78
2021/08/24 10:30:48;;;;;;;5.83;5.33;;;19.10;99.90;;;;;;4926791;29;20210;-78
2021/08/24 10:33:24;;;;;;;12.57;11.77;;;19.00;99.90;;;;;;4932123;29;20199;-78
2021/08/24 10:35:56;;;;;;;10.57;9.43;;;18.90;99.90;;;;;;4928217;29;20233;-78
2021/08/24 10:38:41;;;;;;;6.40;5.80;;;18.80;99.90;;;;;;4924452;29;20190;-78
2021/08/24 10:41:20;;;;;;;6.10;4.73;;;18.90;99.90;;;;;;4926058;29;20196;-78
2021/08/24 10:43:54;;;;;;;5.53;4.83;;;18.80;99.90;;;;;;4908971;29;20227;-77
2021/08/24 10:46:21;;;;;;;5.70;4.43;;;18.80;99.90;;;;;;4913202;29;20250;-77
2021/08/24 10:48:49;;;;;;;8.10;7.30;;;19.10;99.90;;;;;;4910461;29;20594;-78
2021/08/24 10:51:44;;;;;;;5.97;5.37;;;19.30;99.90;;;;;;4914614;29;20210;-81
2021/08/24 10:54:26;;;;;;;5.13;4.63;;;19.70;99.90;;;;;;4912182;29;20274;-80
2021/08/24 10:57:01;;;;;;;6.80;5.10;;;19.60;99.90;;;;;;4918071;29;20230;-78
2021/08/24 10:59:37;;;;;;;5.00;4.40;;;19.50;99.90;;;;;;4907401;29;20311;-78
2021/08/24 11:02:15;;;;;;;12.07;11.27;;;19.30;99.90;;;;;;4915295;29;20226;-78
2021/08/24 11:05:02;;;;;;;12.13;11.23;;;19.40;99.90;;;;;;4913031;29;20249;-78
2021/08/24 11:07:47;;;;;;;12.67;11.67;;;19.30;99.90;;;;;;4920980;29;20194;-80
2021/08/24 11:10:23;;;;;;;5.90;4.77;;;19.30;99.90;;;;;;4917834;29;20266;-78
2021/08/24 11:13:03;;;;;;;6.37;5.77;;;19.10;99.90;;;;;;4916334;29;20647;-78
2021/08/24 11:15:42;;;;;;;5.33;4.23;;;19.30;99.90;;;;;;4920110;29;20222;-79
2021/08/24 11:18:22;;;;;;;6.03;4.83;;;19.50;99.90;;;;;;4922816;29;20210;-78
2021/08/24 11:20:54;;;;;;;8.53;7.73;;;19.70;99.90;;;;;;4922662;29;20201;-78
2021/08/24 11:23:39;;;;;;;10.57;5.00;;;19.60;99.90;;;;;;4927379;29;20249;-78
2021/08/24 11:26:13;;;;;;;9.00;7.73;;;19.40;99.90;;;;;;4923009;29;20231;-81
2021/08/24 11:28:53;;;;;;;13.90;12.90;;;19.10;99.90;;;;;;4914242;29;20209;-78
2021/08/24 11:31:25;;;;;;;10.30;9.50;;;19.30;99.90;;;;;;4919298;29;20198;-78
2021/08/24 11:33:57;;;;;;;7.03;5.63;;;19.50;99.90;;;;;;4917675;29;20198;-78
2021/08/24 11:36:32;;;;;;;5.50;5.00;;;19.50;99.90;;;;;;4910097;29;20221;-78
2021/08/24 11:39:06;;;;;;;5.80;5.30;;;19.50;99.90;;;;;;4926368;29;20217;-78
2021/08/24 11:41:36;;;;;;;11.87;9.83;;;19.50;99.90;;;;;;4925837;29;20554;-78
2021/08/24 11:44:07;;;;;;;6.17;5.60;;;19.30;99.90;;;;;;4919114;29;20632;-78
2021/08/24 11:46:39;;;;;;;6.20;5.60;;;19.40;99.90;;;;;;4922842;29;20245;-78
2021/08/24 11:49:12;;;;;;;8.53;7.63;;;19.50;99.90;;;;;;4922591;29;20670;-78
2021/08/24 11:51:45;;;;;;;6.40;4.30;;;19.60;99.90;;;;;;4929902;29;20206;-78
2021/08/24 11:54:21;;;;;;;10.13;9.23;;;19.70;99.90;;;;;;4923891;29;20232;-78
2021/08/24 11:56:53;;;;;;;11.77;10.87;;;19.90;99.90;;;;;;4904191;29;20290;-78
2021/08/24 11:59:25;;;;;;;11.80;11.00;;;20.00;99.90;;;;;;4915475;29;20210;-78
2021/08/24 12:01:53;;;;;;;12.77;11.83;;;20.00;99.90;;;;;;4915971;29;20211;-78
2021/08/24 12:04:22;;;;;;;11.87;11.07;;;20.00;99.90;;;;;;4922433;29;20227;-79
2021/08/24 12:27:53;;;;;;;14.87;13.97;;;19.80;99.90;;;;;;5284635;23;20233;-78
2021/08/24 12:30:22;;;;;;;13.40;12.50;;;19.70;99.90;;;;;;4935058;29;20254;-78
2021/08/24 12:33:27;;;;;;;13.97;12.97;;;19.70;99.90;;;;;;4933352;29;20198;-77
2021/08/24 12:35:53;;;;;;;11.67;10.90;;;19.40;99.90;;;;;;4932480;29;20227;-77
2021/08/24 12:38:41;;;;;;;12.50;11.60;;;19.50;99.90;;;;;;4936382;29;20201;-78
2021/08/24 12:41:08;;;;;;;12.80;11.90;;;19.30;99.90;;;;;;4940080;29;20206;-78
2021/08/24 12:43:46;;;;;;;12.13;11.33;;;19.20;99.90;;;;;;4935735;29;20213;-77
2021/08/24 12:46:28;;;;;;;12.70;11.63;;;19.30;99.90;;;;;;4937391;29;20611;-78
2021/08/24 12:49:30;;;;;;;12.20;11.37;;;19.20;99.90;;;;;;4931843;29;20197;-78
2021/08/24 12:52:03;;;;;;;11.67;10.90;;;19.00;99.90;;;;;;4935758;29;20523;-78
2021/08/24 12:54:44;;;;;;;11.37;10.57;;;19.00;99.90;;;;;;4936629;29;20208;-78
2021/08/24 12:57:13;;;;;;;11.40;10.60;;;19.20;99.90;;;;;;4935073;29;20330;-77
2021/08/24 12:59:45;;;;;;;11.87;11.07;;;19.20;99.90;;;;;;4936760;29;20204;-78
2021/08/24 13:02:26;;;;;;;11.23;10.43;;;19.20;99.90;;;;;;4929048;29;20212;-78
2021/08/24 13:04:55;;;;;;;11.00;10.20;;;19.40;99.90;;;;;;4933575;29;20199;-78
2021/08/24 13:07:38;;;;;;;11.27;10.47;;;19.40;99.90;;;;;;4934755;29;20718;-79
2021/08/24 13:10:26;;;;;;;10.50;9.80;;;19.40;99.90;;;;;;4935164;29;20246;-80
2021/08/24 13:12:54;;;;;;;7.67;7.07;;;19.40;99.90;;;;;;4930711;29;20204;-79
2021/08/24 13:15:55;;;;;;;11.10;10.40;;;19.20;99.90;;;;;;4933339;29;20248;-80
2021/08/24 13:18:31;;;;;;;6.53;5.80;;;19.20;99.90;;;;;;4906130;29;20200;-78
2021/08/24 13:21:09;;;;;;;4.13;3.73;;;18.90;99.90;;;;;;4927691;29;20215;-78
2021/08/24 13:23:40;;;;;;;5.53;4.97;;;18.80;99.90;;;;;;4932696;29;20263;-79